createdAt,value
2017-06-03T00:02:18.791Z,73.20
2017-06-03T00:04:47.607Z,72.60
2017-06-03T00:07:16.439Z,73.00
2017-06-03T00:09:45.262Z,73.70
2017-06-03T00:12:14.091Z,73.10
2017-06-03T00:14:42.899Z,73.10
2017-06-03T00:17:11.734Z,72.70
2017-06-03T00:19:40.576Z,72.60
2017-06-03T00:22:09.403Z,73.70
2017-06-03T00:24:38.218Z,71.70
2017-06-03T00:27:07.074Z,71.70
2017-06-03T00:29:35.887Z,72.20
2017-06-03T00:32:04.723Z,72.20
2017-06-03T00:34:32.815Z,72.20
2017-06-03T00:37:01.619Z,73.20
2017-06-03T00:39:30.428Z,72.90
2017-06-03T00:41:59.251Z,72.50
2017-06-03T00:44:28.088Z,72.00
2017-06-03T00:46:56.915Z,72.00
2017-06-03T00:49:25.743Z,72.00
2017-06-03T00:51:55.308Z,72.90
2017-06-03T00:54:24.125Z,73.40
2017-06-03T00:56:53.136Z,73.00
2017-06-03T00:59:21.950Z,73.30
2017-06-03T01:01:50.759Z,73.00
2017-06-03T01:04:19.578Z,72.20
2017-06-03T01:06:48.417Z,71.70
2017-06-03T01:09:17.227Z,72.90
2017-06-03T01:11:46.087Z,71.50
2017-06-03T01:14:14.871Z,72.70
2017-06-03T01:16:43.712Z,72.20
2017-06-03T01:19:12.526Z,72.40
2017-06-03T01:21:41.342Z,72.30
2017-06-03T01:24:10.187Z,71.50
2017-06-03T01:26:39.001Z,72.80
2017-06-03T01:29:07.815Z,72.70
2017-06-03T01:31:36.703Z,71.80
2017-06-03T01:34:05.518Z,70.70
2017-06-03T01:36:34.331Z,71.70
2017-06-03T01:39:03.171Z,71.50
2017-06-03T01:41:31.981Z,70.10
2017-06-03T01:44:00.813Z,71.00
2017-06-03T01:46:29.647Z,71.10
2017-06-03T01:48:58.455Z,71.50
2017-06-03T01:51:27.268Z,71.30
2017-06-03T01:53:56.106Z,71.20
2017-06-03T01:56:24.919Z,71.10
2017-06-03T01:58:53.770Z,71.10
2017-06-03T02:01:22.578Z,71.60
2017-06-03T02:03:50.615Z,71.40
2017-06-03T02:06:19.422Z,71.60
2017-06-03T02:08:48.255Z,72.30
2017-06-03T02:11:17.070Z,72.60
2017-06-03T02:13:45.903Z,72.00
2017-06-03T02:16:14.718Z,72.90
2017-06-03T02:18:43.543Z,73.80
2017-06-03T02:21:12.369Z,73.60
2017-06-03T02:23:41.187Z,74.20
2017-06-03T02:26:10.003Z,74.20
2017-06-03T02:28:38.835Z,74.30
2017-06-03T02:31:07.651Z,74.40
2017-06-03T02:33:36.483Z,74.60
2017-06-03T02:36:05.320Z,74.00
2017-06-03T02:38:34.159Z,74.00
2017-06-03T02:41:03.089Z,74.10
2017-06-03T02:43:31.883Z,73.30
2017-06-03T02:46:00.694Z,73.70
2017-06-03T02:48:29.531Z,73.60
2017-06-03T02:50:58.374Z,74.40
2017-06-03T02:53:27.183Z,74.30
2017-06-03T02:55:56.030Z,73.90
2017-06-03T02:58:24.858Z,74.50
2017-06-03T03:00:53.683Z,75.30
2017-06-03T03:03:22.518Z,75.00
2017-06-03T03:05:51.327Z,75.70
2017-06-03T03:08:20.529Z,77.00
2017-06-03T03:10:49.367Z,77.30
2017-06-03T03:13:18.207Z,77.10
2017-06-03T03:15:47.041Z,77.40
2017-06-03T03:18:15.855Z,76.50
2017-06-03T03:20:44.675Z,76.40
2017-06-03T03:23:13.514Z,75.80
2017-06-03T03:25:42.329Z,76.60
2017-06-03T03:28:11.139Z,77.90
2017-06-03T03:30:39.990Z,78.30
2017-06-03T03:33:08.796Z,76.40
2017-06-03T03:35:37.623Z,76.70
2017-06-03T03:38:06.448Z,77.00
2017-06-03T03:40:35.267Z,77.90
2017-06-03T03:43:04.099Z,77.30
2017-06-03T03:45:32.917Z,77.30
2017-06-03T03:48:01.732Z,77.40
2017-06-03T03:50:30.557Z,76.50
2017-06-03T03:52:59.402Z,76.70
2017-06-03T03:55:28.218Z,75.50
2017-06-03T03:57:57.043Z,75.30
2017-06-03T04:00:25.878Z,76.60
2017-06-03T04:02:54.764Z,76.20
2017-06-03T04:05:23.573Z,77.10
2017-06-03T04:07:52.393Z,76.40
2017-06-03T04:10:21.214Z,76.10
2017-06-03T04:12:50.052Z,77.00
2017-06-03T04:15:18.870Z,74.40
2017-06-03T04:17:47.706Z,74.70
2017-06-03T04:20:16.522Z,74.70
2017-06-03T04:22:45.338Z,75.00
2017-06-03T04:25:14.186Z,75.30
2017-06-03T04:27:43.027Z,76.40
2017-06-03T04:30:11.880Z,75.20
2017-06-03T04:32:40.703Z,75.20
2017-06-03T04:35:09.543Z,74.50
2017-06-03T04:37:38.375Z,75.70
2017-06-03T04:40:07.216Z,74.20
2017-06-03T04:42:36.038Z,75.10
2017-06-03T04:45:04.853Z,75.70
2017-06-03T04:47:33.678Z,76.40
2017-06-03T04:50:02.504Z,77.90
2017-06-03T04:52:31.323Z,78.30
2017-06-03T04:55:00.138Z,78.80
2017-06-03T04:57:28.971Z,78.80
2017-06-03T04:59:57.787Z,77.70
2017-06-03T05:02:26.603Z,79.90
2017-06-03T05:04:55.463Z,80.80
2017-06-03T05:07:24.279Z,80.40
2017-06-03T05:09:53.112Z,81.20
2017-06-03T05:12:21.955Z,80.80
2017-06-03T05:14:50.796Z,80.30
2017-06-03T05:17:19.615Z,81.30
2017-06-03T05:19:48.428Z,80.20
2017-06-03T05:22:17.268Z,80.20
2017-06-03T05:24:46.144Z,80.60
2017-06-03T05:27:14.977Z,81.10
2017-06-03T05:29:43.791Z,80.50
2017-06-03T05:32:12.604Z,80.10
2017-06-03T05:34:41.429Z,79.00
2017-06-03T05:37:10.256Z,79.60
2017-06-03T05:39:39.073Z,79.10
2017-06-03T05:42:07.895Z,79.10
2017-06-03T05:44:36.722Z,79.90
2017-06-03T05:47:05.555Z,80.20
2017-06-03T05:49:34.367Z,80.00
2017-06-03T05:52:03.194Z,79.50
2017-06-03T05:54:32.078Z,78.30
2017-06-03T05:57:00.917Z,78.60
2017-06-03T05:59:29.745Z,78.60
2017-06-03T06:01:58.597Z,79.00
2017-06-03T06:04:26.648Z,79.00
2017-06-03T06:06:55.463Z,78.30
2017-06-03T06:09:24.290Z,78.90
2017-06-03T06:11:53.127Z,80.30
2017-06-03T06:14:21.959Z,84.00
2017-06-03T06:16:50.767Z,82.70
2017-06-03T06:19:19.611Z,83.60
2017-06-03T06:21:48.452Z,84.80
2017-06-03T06:24:17.273Z,86.00
2017-06-03T06:26:46.104Z,87.70
2017-06-03T06:29:14.924Z,87.90
2017-06-03T06:31:43.758Z,88.60
2017-06-03T06:34:12.590Z,86.20
2017-06-03T06:36:41.427Z,86.70
2017-06-03T06:39:10.248Z,87.40
2017-06-03T06:41:39.091Z,86.40
2017-06-03T06:44:35.015Z,86.30
2017-06-03T06:47:03.107Z,84.90
2017-06-03T06:49:31.180Z,82.80
2017-06-03T06:51:59.251Z,83.30
2017-06-03T06:54:27.355Z,83.00
2017-06-03T06:56:55.414Z,82.30
2017-06-03T06:59:23.487Z,82.60
2017-06-03T07:01:51.575Z,83.60
2017-06-03T07:04:19.682Z,84.80
2017-06-03T07:06:47.765Z,85.40
2017-06-03T07:09:16.591Z,85.60
2017-06-03T07:11:44.789Z,85.40
2017-06-03T07:14:12.872Z,83.90
2017-06-03T07:16:40.927Z,83.20
2017-06-03T07:19:09.027Z,82.30
2017-06-03T07:21:37.493Z,82.50
2017-06-03T07:24:05.574Z,82.90
2017-06-03T07:26:33.854Z,81.60
2017-06-03T07:29:06.299Z,81.30
2017-06-03T07:31:34.352Z,79.30
2017-06-03T07:34:03.487Z,78.00
2017-06-03T07:36:31.563Z,77.90
2017-06-03T07:38:59.630Z,74.50
2017-06-03T07:41:27.716Z,76.80
2017-06-03T07:43:56.595Z,78.40
2017-06-03T07:46:24.655Z,77.50
2017-06-03T07:48:52.719Z,72.70
2017-06-03T07:51:20.821Z,74.50
2017-06-03T07:53:48.875Z,75.40
2017-06-03T07:56:16.968Z,73.70
2017-06-03T07:58:45.856Z,69.00
2017-06-03T08:01:13.911Z,68.80
2017-06-03T08:03:41.998Z,70.00
2017-06-03T08:06:10.073Z,67.30
2017-06-03T08:08:38.143Z,65.90
2017-06-03T08:11:06.232Z,59.40
2017-06-03T08:13:34.296Z,60.30
2017-06-03T08:16:02.396Z,59.70
2017-06-03T08:18:31.234Z,59.80
2017-06-03T08:20:59.321Z,59.80
2017-06-03T08:23:27.384Z,55.10
2017-06-03T08:25:55.451Z,57.40
2017-06-03T08:28:23.538Z,55.30
2017-06-03T08:30:51.615Z,57.40
2017-06-03T08:33:19.691Z,58.20
2017-06-03T08:35:47.799Z,58.60
2017-06-03T08:38:15.876Z,57.60
2017-06-03T08:40:43.958Z,56.00
2017-06-03T08:43:12.022Z,57.90
2017-06-03T08:45:40.095Z,56.20
2017-06-03T08:48:08.185Z,55.10
2017-06-03T08:50:36.247Z,51.30
2017-06-03T08:53:04.343Z,52.00
2017-06-03T08:55:32.407Z,51.40
2017-06-03T08:58:00.459Z,49.50
2017-06-03T09:00:28.569Z,47.40
2017-06-03T09:02:56.643Z,47.60
2017-06-03T09:05:24.715Z,48.80
2017-06-03T09:07:52.774Z,49.20
2017-06-03T09:10:20.862Z,47.30
2017-06-03T09:12:48.933Z,46.90
2017-06-03T09:15:17.007Z,45.20
2017-06-03T09:17:45.077Z,44.10
2017-06-03T09:20:13.156Z,43.30
2017-06-03T09:22:41.243Z,39.40
2017-06-03T09:25:09.379Z,34.80
2017-06-03T09:27:38.941Z,30.80
2017-06-03T09:30:07.041Z,30.60
2017-06-03T09:32:35.119Z,29.40
2017-06-03T09:35:03.166Z,27.40
2017-06-03T09:37:32.059Z,26.90
2017-06-03T09:40:00.895Z,28.60
2017-06-03T09:42:28.963Z,28.10
2017-06-03T09:44:57.123Z,27.00
2017-06-03T09:47:25.976Z,29.50
2017-06-03T09:49:54.017Z,29.40
2017-06-03T09:52:22.087Z,30.00
2017-06-03T09:54:50.163Z,28.90
2017-06-03T09:57:18.255Z,27.20
2017-06-03T09:59:46.343Z,25.70
2017-06-03T10:02:15.260Z,25.70
2017-06-03T10:04:43.305Z,25.60
2017-06-03T10:07:12.147Z,25.10
2017-06-03T10:09:40.221Z,25.00
2017-06-03T10:12:08.300Z,25.60
2017-06-03T10:14:36.384Z,23.90
2017-06-03T10:17:05.246Z,22.80
2017-06-03T10:19:33.318Z,22.80
2017-06-03T10:22:01.411Z,23.10
2017-06-03T10:24:29.475Z,23.50
2017-06-03T10:26:58.321Z,23.50
2017-06-03T10:29:26.447Z,23.30
2017-06-03T10:31:54.501Z,23.40
2017-06-03T10:34:22.579Z,22.20
2017-06-03T10:36:51.840Z,22.40
2017-06-03T10:39:20.771Z,21.50
2017-06-03T10:41:48.882Z,21.40
2017-06-03T10:44:16.935Z,20.10
2017-06-03T10:46:45.014Z,20.20
2017-06-03T10:49:13.098Z,21.20
2017-06-03T10:51:41.193Z,21.70
2017-06-03T10:54:09.271Z,21.30
2017-06-03T10:56:37.370Z,21.40
2017-06-03T10:59:05.465Z,23.80
2017-06-03T11:01:34.351Z,22.40
2017-06-03T11:04:03.176Z,23.40
2017-06-03T11:19:31.275Z,23.40
2017-06-03T11:22:00.115Z,22.30
2017-06-03T11:24:28.194Z,22.00
2017-06-03T11:26:56.288Z,22.30
2017-06-03T11:39:09.375Z,23.00
2017-06-03T11:41:37.443Z,24.80
2017-06-03T11:44:05.524Z,25.80
2017-06-03T11:46:33.611Z,26.40
2017-06-03T11:49:02.442Z,25.90
2017-06-03T11:51:30.611Z,25.80
2017-06-03T11:53:58.728Z,24.70
2017-06-03T11:56:26.788Z,24.00
2017-06-03T11:58:54.867Z,24.40
2017-06-03T12:01:22.940Z,24.80
2017-06-03T12:03:51.803Z,24.70
2017-06-03T12:06:19.879Z,24.10
2017-06-03T12:08:47.955Z,23.60
2017-06-03T12:11:16.056Z,23.60
2017-06-03T12:13:44.131Z,24.50
2017-06-03T12:16:12.964Z,25.00
2017-06-03T12:18:41.086Z,25.30
2017-06-03T12:21:09.137Z,26.40
2017-06-03T12:23:37.224Z,27.90
2017-06-03T12:26:05.280Z,28.50
2017-06-03T12:28:33.384Z,29.70
2017-06-03T12:31:02.208Z,31.20
2017-06-03T12:33:30.285Z,31.10
2017-06-03T12:35:58.455Z,31.90
2017-06-03T12:38:27.264Z,32.50
2017-06-03T12:40:55.341Z,32.30
2017-06-03T12:43:23.446Z,32.80
2017-06-03T12:45:51.506Z,32.60
2017-06-03T12:48:19.583Z,33.80
2017-06-03T12:50:47.658Z,33.60
2017-06-03T12:53:16.503Z,35.70
2017-06-03T12:55:44.591Z,35.70
2017-06-03T12:58:12.667Z,36.10
2017-06-03T13:00:40.748Z,37.20
2017-06-03T13:03:08.865Z,36.60
2017-06-03T13:05:36.911Z,37.00
2017-06-03T13:08:04.998Z,36.80
2017-06-03T13:10:33.082Z,37.30
2017-06-03T13:13:01.173Z,37.20
2017-06-03T13:15:29.247Z,36.50
2017-06-03T13:17:57.331Z,36.10
2017-06-03T13:20:25.503Z,37.40
2017-06-03T13:22:54.368Z,38.00
2017-06-03T13:25:22.509Z,37.90
2017-06-03T13:27:51.396Z,37.50
2017-06-03T13:30:21.111Z,35.10
2017-06-03T13:32:49.196Z,35.00
2017-06-03T13:35:17.291Z,35.80
2017-06-03T13:37:45.367Z,35.50
2017-06-03T13:40:13.448Z,35.00
2017-06-03T13:42:41.532Z,34.70
2017-06-03T13:45:10.387Z,34.50
2017-06-03T13:47:38.494Z,34.40
2017-06-03T13:50:06.541Z,34.30
2017-06-03T13:52:34.602Z,35.20
2017-06-03T13:55:02.688Z,34.60
2017-06-03T13:57:30.759Z,35.90
2017-06-03T13:59:58.834Z,37.20
2017-06-03T14:02:26.903Z,36.10
2017-06-03T14:04:54.971Z,36.20
2017-06-03T14:07:23.045Z,35.20
2017-06-03T14:09:51.132Z,36.10
2017-06-03T14:12:19.183Z,36.00
2017-06-03T14:14:47.262Z,35.10
2017-06-03T14:17:15.323Z,35.90
2017-06-03T14:19:43.434Z,36.60
2017-06-03T14:22:11.503Z,37.40
2017-06-03T14:24:39.594Z,37.20
2017-06-03T14:27:07.654Z,36.40
2017-06-03T14:29:36.504Z,37.80
2017-06-03T14:32:04.581Z,37.80
2017-06-03T14:34:32.682Z,38.70
2017-06-03T14:37:02.039Z,39.40
2017-06-03T14:39:30.104Z,39.40
2017-06-03T14:41:58.177Z,39.00
2017-06-03T14:44:26.249Z,38.40
2017-06-03T14:46:54.340Z,38.80
2017-06-03T14:49:22.405Z,39.40
2017-06-03T14:51:50.472Z,39.50
2017-06-03T14:54:18.527Z,39.20
2017-06-03T14:56:46.588Z,38.30
2017-06-03T14:59:14.690Z,46.70
2017-06-03T15:01:42.743Z,52.50
2017-06-03T15:04:10.805Z,60.10
2017-06-03T15:06:38.923Z,61.40
2017-06-03T15:09:06.994Z,68.70
2017-06-03T15:11:35.296Z,71.00
2017-06-03T15:14:03.350Z,73.30
2017-06-03T15:16:31.790Z,70.90
2017-06-03T15:19:00.595Z,74.20
2017-06-03T15:21:28.679Z,74.00
2017-06-03T15:23:56.759Z,71.60
2017-06-03T15:26:24.839Z,71.70
2017-06-03T15:28:52.950Z,70.10
2017-06-03T15:31:21.052Z,72.20
2017-06-03T15:33:49.140Z,73.00
2017-06-03T15:36:17.190Z,75.40
2017-06-03T15:38:45.288Z,70.30
2017-06-03T15:41:13.372Z,71.20
2017-06-03T15:43:41.451Z,73.70
2017-06-03T15:46:09.540Z,76.30
2017-06-03T15:48:38.873Z,73.30
2017-06-03T15:51:06.945Z,73.20
2017-06-03T15:53:35.040Z,71.40
2017-06-03T15:56:03.125Z,73.30
2017-06-03T15:58:31.198Z,69.40
2017-06-03T16:00:59.268Z,68.60
2017-06-03T16:03:27.354Z,69.50
2017-06-03T16:05:55.411Z,67.00
2017-06-03T16:08:23.517Z,69.80
2017-06-03T16:10:51.595Z,66.10
2017-06-03T16:13:19.668Z,65.00
2017-06-03T16:15:47.779Z,69.10
2017-06-03T16:18:15.860Z,66.40
2017-06-03T16:20:43.927Z,67.30
2017-06-03T16:23:12.016Z,68.60
2017-06-03T16:25:40.859Z,67.00
2017-06-03T16:28:08.918Z,66.40
2017-06-03T16:30:37.039Z,66.80
2017-06-03T16:33:05.863Z,64.70
2017-06-03T16:35:34.881Z,64.60
2017-06-03T16:38:02.969Z,66.80
2017-06-03T16:40:31.054Z,67.90
2017-06-03T16:42:59.135Z,66.20
2017-06-03T16:45:27.199Z,65.60
2017-06-03T16:47:55.296Z,65.90
2017-06-03T16:50:24.117Z,64.60
2017-06-03T16:52:52.195Z,64.30
2017-06-03T16:55:20.268Z,66.00
2017-06-03T16:57:48.340Z,64.50
2017-06-03T17:00:16.434Z,64.30
2017-06-03T17:02:44.539Z,64.70
2017-06-03T17:05:14.384Z,65.70
2017-06-03T17:07:42.539Z,65.50
2017-06-03T17:10:11.404Z,65.80
2017-06-03T17:12:39.503Z,65.80
2017-06-03T17:15:07.582Z,67.00
2017-06-03T17:17:35.628Z,68.00
2017-06-03T17:20:05.288Z,67.80
2017-06-03T17:22:33.357Z,67.60
2017-06-03T17:25:01.448Z,67.50
2017-06-03T17:27:29.526Z,67.90
2017-06-03T17:29:58.367Z,68.70
2017-06-03T17:32:26.461Z,68.70
2017-06-03T17:34:54.558Z,68.70
2017-06-03T17:37:22.628Z,67.20
2017-06-03T17:39:50.725Z,66.60
2017-06-03T17:42:19.543Z,68.60
2017-06-03T17:44:47.634Z,68.40
2017-06-03T17:47:15.712Z,67.30
2017-06-03T17:49:43.797Z,68.30
2017-06-03T17:52:11.867Z,69.00
2017-06-03T17:54:39.960Z,68.70
2017-06-03T17:57:08.059Z,68.80
2017-06-03T17:59:36.140Z,68.90
2017-06-03T18:02:04.210Z,69.90
2017-06-03T18:04:32.377Z,70.00
2017-06-03T18:07:00.460Z,70.50
2017-06-03T18:09:28.553Z,70.90
2017-06-03T18:11:56.618Z,70.90
2017-06-03T18:14:25.470Z,72.60
2017-06-03T18:16:53.573Z,72.40
2017-06-03T18:19:21.684Z,72.10
2017-06-03T18:21:50.498Z,71.60
2017-06-03T18:24:18.576Z,71.40
2017-06-03T18:26:46.652Z,71.10
2017-06-03T18:29:14.729Z,71.20
2017-06-03T18:31:42.838Z,73.70
2017-06-03T18:34:11.686Z,73.30
2017-06-03T18:36:39.771Z,73.10
2017-06-03T18:39:07.867Z,73.40
2017-06-03T18:41:36.735Z,72.40
2017-06-03T18:44:04.822Z,73.10
2017-06-03T18:46:33.675Z,72.60
2017-06-03T18:49:01.832Z,72.40
2017-06-03T18:51:29.899Z,71.70
2017-06-03T18:53:58.779Z,71.70
2017-06-03T18:56:26.876Z,72.80
2017-06-03T18:58:54.948Z,72.50
2017-06-03T19:01:23.020Z,72.00
2017-06-03T19:03:51.099Z,71.90
2017-06-03T19:06:19.160Z,72.50
2017-06-03T19:08:47.273Z,72.80
2017-06-03T19:11:15.347Z,72.20
2017-06-03T19:13:43.411Z,73.30
2017-06-03T19:16:11.520Z,72.00
2017-06-03T19:18:39.603Z,72.20
2017-06-03T19:21:08.427Z,72.10
2017-06-03T19:23:36.533Z,72.00
2017-06-03T19:26:04.588Z,71.30
2017-06-03T19:28:32.709Z,72.20
2017-06-03T19:31:00.768Z,71.30
2017-06-03T19:33:28.838Z,72.00
2017-06-03T19:35:56.920Z,72.10
2017-06-03T19:38:25.757Z,71.20
2017-06-03T19:40:53.823Z,71.10
2017-06-03T19:43:22.527Z,70.90
2017-06-03T19:45:50.597Z,70.90
2017-06-03T19:48:18.694Z,71.20
2017-06-03T19:50:46.814Z,71.30
2017-06-03T19:53:14.912Z,70.80
2017-06-03T19:55:43.007Z,70.50
2017-06-03T19:58:11.076Z,70.70
2017-06-03T20:00:39.150Z,70.80
2017-06-03T20:03:07.262Z,71.00
2017-06-03T20:05:36.098Z,72.00
2017-06-03T20:08:04.200Z,71.80
2017-06-03T20:10:32.273Z,72.00
2017-06-03T20:13:00.347Z,72.00
2017-06-03T20:15:28.415Z,71.60
2017-06-03T20:17:56.493Z,70.80
2017-06-03T20:20:24.575Z,71.90
2017-06-03T20:22:53.494Z,71.90
2017-06-03T20:25:21.591Z,72.10
2017-06-03T20:27:49.689Z,71.80
2017-06-03T20:30:17.764Z,71.80
2017-06-03T20:32:45.820Z,72.10
2017-06-03T20:35:13.897Z,72.30
2017-06-03T20:37:41.996Z,71.70
2017-06-03T20:40:10.072Z,71.60
2017-06-03T20:42:38.160Z,71.50
2017-06-03T20:45:07.008Z,70.70
2017-06-03T20:47:35.106Z,70.60
2017-06-03T20:50:03.171Z,70.20
2017-06-03T20:52:31.242Z,69.90
2017-06-03T20:54:59.311Z,70.40
2017-06-03T20:57:27.380Z,71.00
2017-06-03T20:59:55.478Z,70.50
2017-06-03T21:02:23.532Z,70.70
2017-06-03T21:04:51.603Z,70.40
2017-06-03T21:07:19.687Z,71.40
2017-06-03T21:09:48.512Z,70.50
2017-06-03T21:12:16.637Z,70.50
2017-06-03T21:14:45.488Z,69.30
2017-06-03T21:17:13.548Z,69.90
2017-06-03T21:19:41.634Z,69.10
2017-06-03T21:22:09.729Z,70.00
2017-06-03T21:24:37.792Z,70.30
2017-06-03T21:27:05.854Z,69.30
2017-06-03T21:29:33.955Z,69.30
2017-06-03T21:32:02.024Z,69.40
2017-06-03T21:34:31.026Z,69.30
2017-06-03T21:36:59.855Z,68.60
2017-06-03T21:39:27.957Z,68.60
2017-06-03T21:41:56.042Z,69.00
2017-06-03T21:44:24.155Z,68.70
2017-06-03T21:46:52.266Z,69.90
2017-06-03T21:49:20.347Z,69.50
2017-06-03T21:51:48.416Z,70.80
2017-06-03T21:54:16.603Z,70.80
2017-06-03T21:56:44.666Z,71.20
2017-06-03T21:59:12.731Z,72.50
2017-06-03T22:01:40.838Z,72.90
2017-06-03T22:04:08.929Z,73.90
2017-06-03T22:06:37.033Z,73.60
2017-06-03T22:09:05.134Z,73.80
2017-06-03T22:11:33.217Z,74.60
2017-06-03T22:14:01.277Z,74.90
2017-06-03T22:16:29.352Z,75.80
2017-06-03T22:18:58.179Z,76.10
2017-06-03T22:21:26.275Z,76.00
2017-06-03T22:23:54.367Z,77.80
2017-06-03T22:26:22.445Z,77.10
2017-06-03T22:28:50.543Z,77.40
2017-06-03T22:31:18.620Z,77.80
2017-06-03T22:33:46.681Z,77.90
2017-06-03T22:36:15.523Z,78.40
2017-06-03T22:38:43.604Z,78.40
2017-06-03T22:41:11.663Z,78.40
2017-06-03T22:43:39.735Z,76.40
2017-06-03T22:46:07.802Z,76.40
2017-06-03T22:48:35.892Z,76.70
2017-06-03T22:51:03.982Z,76.60
2017-06-03T22:53:32.047Z,77.70
2017-06-03T22:56:00.137Z,79.50
2017-06-03T22:58:28.201Z,79.50
2017-06-03T23:00:57.059Z,83.20
2017-06-03T23:03:25.136Z,82.60
2017-06-03T23:05:53.213Z,79.60
2017-06-03T23:08:21.275Z,81.40
2017-06-03T23:10:49.338Z,81.00
2017-06-03T23:13:19.396Z,79.50
2017-06-03T23:15:47.469Z,79.40
2017-06-03T23:18:15.547Z,81.70
2017-06-03T23:20:43.639Z,83.20
2017-06-03T23:23:11.703Z,81.90
2017-06-03T23:25:39.783Z,80.30
2017-06-03T23:28:07.863Z,80.40
2017-06-03T23:30:35.930Z,80.30
2017-06-03T23:33:04.040Z,80.40
2017-06-03T23:35:32.087Z,80.70
2017-06-03T23:38:00.910Z,78.80
2017-06-03T23:40:28.988Z,78.80
2017-06-03T23:42:57.055Z,79.10
2017-06-03T23:45:25.147Z,80.30
2017-06-03T23:47:53.206Z,80.40
2017-06-03T23:50:21.280Z,82.20
2017-06-03T23:52:49.360Z,80.90
2017-06-03T23:55:17.425Z,82.20
2017-06-03T23:57:45.524Z,82.80
